sensor_id;sensor_type;location;lat;lon;timestamp;P1;durP1;ratioP1;P2;durP2;ratioP2
2896;SDS011;1458;49.728;9.228;2023-04-24T00:00:11;0.20;;;0.20;;
2896;SDS011;1458;49.728;9.228;2023-04-24T00:02:41;0.20;;;0.20;;
2896;SDS011;1458;49.728;9.228;2023-04-24T00:05:11;0.20;;;0.20;;
2896;SDS011;1458;49.728;9.228;2023-04-24T00:07:40;0.20;;;0.20;;
2896;SDS011;1458;49.728;9.228;2023-04-24T00:10:09;0.30;;;0.30;;
2896;SDS011;1458;49.728;9.228;2023-04-24T00:12:37;0.20;;;0.20;;
2896;SDS011;1458;49.728;9.228;2023-04-24T00:15:06;0.20;;;0.20;;
2896;SDS011;1458;49.728;9.228;2023-04-24T00:17:35;0.20;;;0.20;;
2896;SDS011;1458;49.728;9.228;2023-04-24T00:20:03;0.20;;;0.20;;
2896;SDS011;1458;49.728;9.228;2023-04-24T00:22:32;0.20;;;0.20;;
2896;SDS011;1458;49.728;9.228;2023-04-24T00:25:00;0.20;;;0.20;;
2896;SDS011;1458;49.728;9.228;2023-04-24T00:27:29;0.20;;;0.20;;
2896;SDS011;1458;49.728;9.228;2023-04-24T00:29:57;0.20;;;0.20;;
2896;SDS011;1458;49.728;9.228;2023-04-24T00:32:24;0.20;;;0.20;;
2896;SDS011;1458;49.728;9.228;2023-04-24T00:34:54;0.20;;;0.20;;
2896;SDS011;1458;49.728;9.228;2023-04-24T00:37:21;0.20;;;0.20;;
2896;SDS011;1458;49.728;9.228;2023-04-24T00:39:49;0.20;;;0.20;;
2896;SDS011;1458;49.728;9.228;2023-04-24T00:42:17;0.20;;;0.20;;
2896;SDS011;1458;49.728;9.228;2023-04-24T00:44:47;0.20;;;0.20;;
2896;SDS011;1458;49.728;9.228;2023-04-24T00:47:17;0.20;;;0.20;;
2896;SDS011;1458;49.728;9.228;2023-04-24T00:49:47;0.20;;;0.20;;
2896;SDS011;1458;49.728;9.228;2023-04-24T00:52:14;0.20;;;0.20;;
2896;SDS011;1458;49.728;9.228;2023-04-24T00:54:43;0.20;;;0.20;;
2896;SDS011;1458;49.728;9.228;2023-04-24T00:57:10;0.20;;;0.20;;
2896;SDS011;1458;49.728;9.228;2023-04-24T00:59:40;0.27;;;0.27;;
2896;SDS011;1458;49.728;9.228;2023-04-24T01:02:10;0.20;;;0.20;;
2896;SDS011;1458;49.728;9.228;2023-04-24T01:04:38;0.20;;;0.20;;
2896;SDS011;1458;49.728;9.228;2023-04-24T01:07:06;0.20;;;0.20;;
2896;SDS011;1458;49.728;9.228;2023-04-24T01:09:36;0.20;;;0.20;;
2896;SDS011;1458;49.728;9.228;2023-04-24T01:12:07;0.20;;;0.20;;
2896;SDS011;1458;49.728;9.228;2023-04-24T01:14:36;0.20;;;0.20;;
2896;SDS011;1458;49.728;9.228;2023-04-24T01:17:04;0.20;;;0.20;;
2896;SDS011;1458;49.728;9.228;2023-04-24T01:19:34;0.20;;;0.20;;
2896;SDS011;1458;49.728;9.228;2023-04-24T01:22:02;0.20;;;0.20;;
2896;SDS011;1458;49.728;9.228;2023-04-24T01:24:37;0.27;;;0.27;;
2896;SDS011;1458;49.728;9.228;2023-04-24T01:27:05;0.20;;;0.20;;
2896;SDS011;1458;49.728;9.228;2023-04-24T01:29:33;0.20;;;0.20;;
2896;SDS011;1458;49.728;9.228;2023-04-24T01:32:02;0.20;;;0.20;;
2896;SDS011;1458;49.728;9.228;2023-04-24T01:34:30;0.20;;;0.20;;
2896;SDS011;1458;49.728;9.228;2023-04-24T01:36:58;0.20;;;0.20;;
2896;SDS011;1458;49.728;9.228;2023-04-24T01:39:28;0.20;;;0.20;;
2896;SDS011;1458;49.728;9.228;2023-04-24T01:41:55;0.20;;;0.20;;
2896;SDS011;1458;49.728;9.228;2023-04-24T01:44:23;0.30;;;0.30;;
2896;SDS011;1458;49.728;9.228;2023-04-24T01:46:51;0.30;;;0.30;;
2896;SDS011;1458;49.728;9.228;2023-04-24T01:49:19;0.20;;;0.20;;
2896;SDS011;1458;49.728;9.228;2023-04-24T01:51:47;0.23;;;0.23;;
2896;SDS011;1458;49.728;9.228;2023-04-24T01:54:14;0.20;;;0.20;;
2896;SDS011;1458;49.728;9.228;2023-04-24T01:56:43;0.20;;;0.20;;
2896;SDS011;1458;49.728;9.228;2023-04-24T01:59:12;0.20;;;0.20;;
2896;SDS011;1458;49.728;9.228;2023-04-24T02:01:41;0.20;;;0.20;;
2896;SDS011;1458;49.728;9.228;2023-04-24T02:04:08;0.20;;;0.20;;
2896;SDS011;1458;49.728;9.228;2023-04-24T02:06:36;0.30;;;0.30;;
2896;SDS011;1458;49.728;9.228;2023-04-24T02:09:04;0.20;;;0.20;;
2896;SDS011;1458;49.728;9.228;2023-04-24T02:11:31;0.20;;;0.20;;
2896;SDS011;1458;49.728;9.228;2023-04-24T02:14:00;0.20;;;0.20;;
2896;SDS011;1458;49.728;9.228;2023-04-24T02:16:28;0.20;;;0.20;;
2896;SDS011;1458;49.728;9.228;2023-04-24T02:18:58;0.20;;;0.20;;
2896;SDS011;1458;49.728;9.228;2023-04-24T02:21:25;0.20;;;0.20;;
2896;SDS011;1458;49.728;9.228;2023-04-24T02:23:53;0.20;;;0.20;;
2896;SDS011;1458;49.728;9.228;2023-04-24T02:26:21;0.20;;;0.20;;
2896;SDS011;1458;49.728;9.228;2023-04-24T02:28:50;0.20;;;0.20;;
2896;SDS011;1458;49.728;9.228;2023-04-24T02:31:21;0.23;;;0.23;;
2896;SDS011;1458;49.728;9.228;2023-04-24T02:33:48;0.20;;;0.20;;
2896;SDS011;1458;49.728;9.228;2023-04-24T02:36:16;0.20;;;0.20;;
2896;SDS011;1458;49.728;9.228;2023-04-24T02:38:44;0.20;;;0.20;;
2896;SDS011;1458;49.728;9.228;2023-04-24T02:41:12;0.20;;;0.20;;
2896;SDS011;1458;49.728;9.228;2023-04-24T02:43:41;0.30;;;0.30;;
2896;SDS011;1458;49.728;9.228;2023-04-24T02:46:09;0.20;;;0.20;;
2896;SDS011;1458;49.728;9.228;2023-04-24T02:48:38;0.20;;;0.20;;
2896;SDS011;1458;49.728;9.228;2023-04-24T02:51:06;0.20;;;0.20;;
2896;SDS011;1458;49.728;9.228;2023-04-24T02:53:34;0.20;;;0.20;;
2896;SDS011;1458;49.728;9.228;2023-04-24T02:56:01;0.20;;;0.20;;
2896;SDS011;1458;49.728;9.228;2023-04-24T02:58:30;0.30;;;0.30;;
2896;SDS011;1458;49.728;9.228;2023-04-24T03:00:58;0.20;;;0.20;;
2896;SDS011;1458;49.728;9.228;2023-04-24T03:03:26;0.20;;;0.20;;
2896;SDS011;1458;49.728;9.228;2023-04-24T03:05:55;0.30;;;0.30;;
2896;SDS011;1458;49.728;9.228;2023-04-24T03:08:24;0.27;;;0.27;;
2896;SDS011;1458;49.728;9.228;2023-04-24T03:10:51;0.20;;;0.20;;
2896;SDS011;1458;49.728;9.228;2023-04-24T03:13:19;0.30;;;0.30;;
2896;SDS011;1458;49.728;9.228;2023-04-24T03:15:46;0.20;;;0.20;;
2896;SDS011;1458;49.728;9.228;2023-04-24T03:18:14;0.30;;;0.30;;
2896;SDS011;1458;49.728;9.228;2023-04-24T03:20:42;0.20;;;0.20;;
2896;SDS011;1458;49.728;9.228;2023-04-24T03:23:14;0.30;;;0.30;;
2896;SDS011;1458;49.728;9.228;2023-04-24T03:25:42;0.30;;;0.30;;
2896;SDS011;1458;49.728;9.228;2023-04-24T03:28:11;0.20;;;0.20;;
2896;SDS011;1458;49.728;9.228;2023-04-24T03:30:47;0.40;;;0.40;;
2896;SDS011;1458;49.728;9.228;2023-04-24T03:33:16;0.30;;;0.30;;
2896;SDS011;1458;49.728;9.228;2023-04-24T03:35:53;0.20;;;0.20;;
2896;SDS011;1458;49.728;9.228;2023-04-24T03:38:22;0.30;;;0.30;;
2896;SDS011;1458;49.728;9.228;2023-04-24T03:41:09;0.20;;;0.20;;
2896;SDS011;1458;49.728;9.228;2023-04-24T03:43:45;0.23;;;0.23;;
2896;SDS011;1458;49.728;9.228;2023-04-24T03:46:12;0.20;;;0.20;;
2896;SDS011;1458;49.728;9.228;2023-04-24T03:48:45;0.20;;;0.20;;
2896;SDS011;1458;49.728;9.228;2023-04-24T03:51:15;0.20;;;0.20;;
2896;SDS011;1458;49.728;9.228;2023-04-24T03:53:47;0.20;;;0.20;;
2896;SDS011;1458;49.728;9.228;2023-04-24T03:56:18;0.20;;;0.20;;
2896;SDS011;1458;49.728;9.228;2023-04-24T03:58:45;0.20;;;0.20;;
2896;SDS011;1458;49.728;9.228;2023-04-24T04:01:14;0.20;;;0.20;;
2896;SDS011;1458;49.728;9.228;2023-04-24T04:03:50;0.20;;;0.20;;
2896;SDS011;1458;49.728;9.228;2023-04-24T04:06:21;0.20;;;0.20;;
2896;SDS011;1458;49.728;9.228;2023-04-24T04:08:52;0.20;;;0.20;;
2896;SDS011;1458;49.728;9.228;2023-04-24T04:11:20;0.20;;;0.20;;
2896;SDS011;1458;49.728;9.228;2023-04-24T04:13:47;0.20;;;0.20;;
2896;SDS011;1458;49.728;9.228;2023-04-24T04:16:18;0.20;;;0.20;;
2896;SDS011;1458;49.728;9.228;2023-04-24T04:18:48;0.20;;;0.20;;
2896;SDS011;1458;49.728;9.228;2023-04-24T04:21:16;0.30;;;0.30;;
2896;SDS011;1458;49.728;9.228;2023-04-24T04:23:44;0.20;;;0.20;;
2896;SDS011;1458;49.728;9.228;2023-04-24T04:26:23;0.30;;;0.30;;
2896;SDS011;1458;49.728;9.228;2023-04-24T04:28:58;0.20;;;0.20;;
2896;SDS011;1458;49.728;9.228;2023-04-24T04:31:28;0.30;;;0.30;;
2896;SDS011;1458;49.728;9.228;2023-04-24T04:33:58;0.20;;;0.20;;
2896;SDS011;1458;49.728;9.228;2023-04-24T04:36:29;0.27;;;0.27;;
2896;SDS011;1458;49.728;9.228;2023-04-24T04:39:04;0.20;;;0.20;;
2896;SDS011;1458;49.728;9.228;2023-04-24T04:41:53;0.20;;;0.20;;
2896;SDS011;1458;49.728;9.228;2023-04-24T04:44:24;0.20;;;0.20;;
2896;SDS011;1458;49.728;9.228;2023-04-24T04:46:53;0.20;;;0.20;;
2896;SDS011;1458;49.728;9.228;2023-04-24T04:49:27;0.30;;;0.30;;
2896;SDS011;1458;49.728;9.228;2023-04-24T04:51:54;0.30;;;0.30;;
2896;SDS011;1458;49.728;9.228;2023-04-24T04:54:24;0.30;;;0.30;;
2896;SDS011;1458;49.728;9.228;2023-04-24T04:56:54;0.30;;;0.30;;
2896;SDS011;1458;49.728;9.228;2023-04-24T04:59:23;0.30;;;0.30;;
2896;SDS011;1458;49.728;9.228;2023-04-24T05:01:56;0.20;;;0.20;;
2896;SDS011;1458;49.728;9.228;2023-04-24T05:04:24;0.30;;;0.30;;
2896;SDS011;1458;49.728;9.228;2023-04-24T05:06:52;0.30;;;0.30;;
2896;SDS011;1458;49.728;9.228;2023-04-24T05:09:21;0.30;;;0.30;;
2896;SDS011;1458;49.728;9.228;2023-04-24T05:11:57;0.20;;;0.20;;
2896;SDS011;1458;49.728;9.228;2023-04-24T05:14:25;0.40;;;0.40;;
2896;SDS011;1458;49.728;9.228;2023-04-24T05:16:53;0.30;;;0.30;;
2896;SDS011;1458;49.728;9.228;2023-04-24T05:19:23;0.30;;;0.30;;
2896;SDS011;1458;49.728;9.228;2023-04-24T05:21:51;0.30;;;0.30;;
2896;SDS011;1458;49.728;9.228;2023-04-24T05:24:19;0.30;;;0.30;;
2896;SDS011;1458;49.728;9.228;2023-04-24T05:27:13;0.30;;;0.30;;
2896;SDS011;1458;49.728;9.228;2023-04-24T05:29:41;0.30;;;0.30;;
2896;SDS011;1458;49.728;9.228;2023-04-24T05:32:09;0.40;;;0.40;;
2896;SDS011;1458;49.728;9.228;2023-04-24T05:34:36;0.30;;;0.30;;
2896;SDS011;1458;49.728;9.228;2023-04-24T05:37:04;0.30;;;0.30;;
2896;SDS011;1458;49.728;9.228;2023-04-24T05:39:35;0.30;;;0.30;;
2896;SDS011;1458;49.728;9.228;2023-04-24T05:42:04;0.30;;;0.30;;
2896;SDS011;1458;49.728;9.228;2023-04-24T05:44:33;0.30;;;0.30;;
2896;SDS011;1458;49.728;9.228;2023-04-24T05:47:00;0.30;;;0.30;;
2896;SDS011;1458;49.728;9.228;2023-04-24T05:49:28;0.30;;;0.30;;
2896;SDS011;1458;49.728;9.228;2023-04-24T05:51:56;0.30;;;0.30;;
2896;SDS011;1458;49.728;9.228;2023-04-24T05:54:24;0.30;;;0.30;;
2896;SDS011;1458;49.728;9.228;2023-04-24T05:56:51;0.40;;;0.40;;
2896;SDS011;1458;49.728;9.228;2023-04-24T05:59:30;0.30;;;0.30;;
2896;SDS011;1458;49.728;9.228;2023-04-24T06:01:59;0.40;;;0.40;;
2896;SDS011;1458;49.728;9.228;2023-04-24T06:04:27;0.40;;;0.40;;
2896;SDS011;1458;49.728;9.228;2023-04-24T06:06:57;0.40;;;0.40;;
2896;SDS011;1458;49.728;9.228;2023-04-24T06:09:25;0.30;;;0.30;;
2896;SDS011;1458;49.728;9.228;2023-04-24T06:11:53;0.40;;;0.40;;
2896;SDS011;1458;49.728;9.228;2023-04-24T06:14:27;0.40;;;0.40;;
2896;SDS011;1458;49.728;9.228;2023-04-24T06:17:15;0.40;;;0.40;;
2896;SDS011;1458;49.728;9.228;2023-04-24T06:19:44;0.40;;;0.40;;
2896;SDS011;1458;49.728;9.228;2023-04-24T06:22:12;0.40;;;0.40;;
2896;SDS011;1458;49.728;9.228;2023-04-24T06:24:40;0.40;;;0.40;;
2896;SDS011;1458;49.728;9.228;2023-04-24T06:27:08;0.40;;;0.40;;
2896;SDS011;1458;49.728;9.228;2023-04-24T06:29:36;0.50;;;0.50;;
2896;SDS011;1458;49.728;9.228;2023-04-24T06:32:03;0.50;;;0.50;;
2896;SDS011;1458;49.728;9.228;2023-04-24T06:34:33;0.67;;;0.67;;
2896;SDS011;1458;49.728;9.228;2023-04-24T06:37:01;0.70;;;0.70;;
2896;SDS011;1458;49.728;9.228;2023-04-24T06:39:29;0.70;;;0.70;;
2896;SDS011;1458;49.728;9.228;2023-04-24T06:41:57;0.60;;;0.60;;
2896;SDS011;1458;49.728;9.228;2023-04-24T06:44:25;0.70;;;0.70;;
2896;SDS011;1458;49.728;9.228;2023-04-24T06:46:53;0.70;;;0.70;;
2896;SDS011;1458;49.728;9.228;2023-04-24T06:49:20;0.70;;;0.70;;
2896;SDS011;1458;49.728;9.228;2023-04-24T06:51:50;1.10;;;1.10;;
2896;SDS011;1458;49.728;9.228;2023-04-24T06:54:18;1.50;;;1.50;;
2896;SDS011;1458;49.728;9.228;2023-04-24T06:56:45;1.40;;;1.40;;
2896;SDS011;1458;49.728;9.228;2023-04-24T06:59:14;1.40;;;1.40;;
2896;SDS011;1458;49.728;9.228;2023-04-24T07:01:41;1.80;;;1.80;;
2896;SDS011;1458;49.728;9.228;2023-04-24T07:04:09;1.70;;;1.70;;
2896;SDS011;1458;49.728;9.228;2023-04-24T07:06:37;1.80;;;1.80;;
2896;SDS011;1458;49.728;9.228;2023-04-24T07:09:06;2.23;;;2.23;;
2896;SDS011;1458;49.728;9.228;2023-04-24T07:11:34;2.70;;;2.70;;
2896;SDS011;1458;49.728;9.228;2023-04-24T07:14:03;2.50;;;2.50;;
2896;SDS011;1458;49.728;9.228;2023-04-24T07:16:31;2.30;;;2.30;;
2896;SDS011;1458;49.728;9.228;2023-04-24T07:18:59;2.47;;;2.47;;
2896;SDS011;1458;49.728;9.228;2023-04-24T07:21:26;2.10;;;2.10;;
2896;SDS011;1458;49.728;9.228;2023-04-24T07:23:54;2.00;;;2.00;;
2896;SDS011;1458;49.728;9.228;2023-04-24T07:26:23;1.80;;;1.80;;
2896;SDS011;1458;49.728;9.228;2023-04-24T07:28:50;1.90;;;1.90;;
2896;SDS011;1458;49.728;9.228;2023-04-24T07:31:17;2.20;;;2.20;;
2896;SDS011;1458;49.728;9.228;2023-04-24T07:33:45;2.20;;;2.20;;
2896;SDS011;1458;49.728;9.228;2023-04-24T07:36:12;2.07;;;2.07;;
2896;SDS011;1458;49.728;9.228;2023-04-24T07:38:44;2.20;;;2.20;;
2896;SDS011;1458;49.728;9.228;2023-04-24T07:41:11;2.20;;;2.20;;
2896;SDS011;1458;49.728;9.228;2023-04-24T07:43:41;2.00;;;2.00;;
2896;SDS011;1458;49.728;9.228;2023-04-24T07:46:08;1.87;;;1.87;;
2896;SDS011;1458;49.728;9.228;2023-04-24T07:48:36;2.00;;;2.00;;
2896;SDS011;1458;49.728;9.228;2023-04-24T07:51:03;1.93;;;1.93;;
2896;SDS011;1458;49.728;9.228;2023-04-24T07:53:31;1.93;;;1.93;;
2896;SDS011;1458;49.728;9.228;2023-04-24T07:55:58;1.87;;;1.87;;
2896;SDS011;1458;49.728;9.228;2023-04-24T07:58:26;2.00;;;2.00;;
2896;SDS011;1458;49.728;9.228;2023-04-24T08:00:55;2.53;;;2.53;;
2896;SDS011;1458;49.728;9.228;2023-04-24T08:03:22;2.70;;;2.70;;
2896;SDS011;1458;49.728;9.228;2023-04-24T08:05:49;2.90;;;2.90;;
2896;SDS011;1458;49.728;9.228;2023-04-24T08:08:17;2.80;;;2.80;;
2896;SDS011;1458;49.728;9.228;2023-04-24T08:10:47;2.70;;;2.70;;
2896;SDS011;1458;49.728;9.228;2023-04-24T08:13:15;2.70;;;2.70;;
2896;SDS011;1458;49.728;9.228;2023-04-24T08:15:42;2.70;;;2.70;;
2896;SDS011;1458;49.728;9.228;2023-04-24T08:18:11;3.30;;;3.30;;
2896;SDS011;1458;49.728;9.228;2023-04-24T08:20:40;2.90;;;2.90;;
2896;SDS011;1458;49.728;9.228;2023-04-24T08:23:09;3.33;;;3.33;;
2896;SDS011;1458;49.728;9.228;2023-04-24T08:25:36;2.90;;;2.90;;
2896;SDS011;1458;49.728;9.228;2023-04-24T08:28:05;2.87;;;2.87;;
2896;SDS011;1458;49.728;9.228;2023-04-24T08:30:33;3.50;;;3.50;;
2896;SDS011;1458;49.728;9.228;2023-04-24T08:33:00;3.40;;;3.40;;
2896;SDS011;1458;49.728;9.228;2023-04-24T08:35:29;3.40;;;3.40;;
2896;SDS011;1458;49.728;9.228;2023-04-24T08:37:57;3.80;;;3.80;;
2896;SDS011;1458;49.728;9.228;2023-04-24T08:40:26;3.60;;;3.60;;
2896;SDS011;1458;49.728;9.228;2023-04-24T08:42:55;3.90;;;3.90;;
2896;SDS011;1458;49.728;9.228;2023-04-24T08:45:23;3.30;;;3.30;;
2896;SDS011;1458;49.728;9.228;2023-04-24T08:47:52;3.50;;;3.50;;
2896;SDS011;1458;49.728;9.228;2023-04-24T08:50:21;4.10;;;4.10;;
2896;SDS011;1458;49.728;9.228;2023-04-24T08:52:51;4.60;;;4.60;;
2896;SDS011;1458;49.728;9.228;2023-04-24T08:55:22;4.70;;;4.70;;
2896;SDS011;1458;49.728;9.228;2023-04-24T08:57:52;4.93;;;4.93;;
2896;SDS011;1458;49.728;9.228;2023-04-24T09:00:20;5.13;;;5.13;;
2896;SDS011;1458;49.728;9.228;2023-04-24T09:02:48;5.40;;;5.40;;
2896;SDS011;1458;49.728;9.228;2023-04-24T09:05:16;5.30;;;5.30;;
2896;SDS011;1458;49.728;9.228;2023-04-24T09:07:45;5.20;;;5.20;;
2896;SDS011;1458;49.728;9.228;2023-04-24T09:10:19;4.80;;;4.80;;
2896;SDS011;1458;49.728;9.228;2023-04-24T09:12:48;4.27;;;4.27;;
2896;SDS011;1458;49.728;9.228;2023-04-24T09:15:18;4.17;;;4.17;;
2896;SDS011;1458;49.728;9.228;2023-04-24T09:17:46;4.07;;;4.07;;
2896;SDS011;1458;49.728;9.228;2023-04-24T09:20:14;4.30;;;4.30;;
2896;SDS011;1458;49.728;9.228;2023-04-24T09:22:42;4.20;;;4.20;;
2896;SDS011;1458;49.728;9.228;2023-04-24T09:25:13;4.20;;;4.20;;
2896;SDS011;1458;49.728;9.228;2023-04-24T09:27:41;4.30;;;4.30;;
2896;SDS011;1458;49.728;9.228;2023-04-24T09:30:10;4.13;;;4.13;;
2896;SDS011;1458;49.728;9.228;2023-04-24T09:32:39;4.60;;;4.60;;
2896;SDS011;1458;49.728;9.228;2023-04-24T09:35:10;4.60;;;4.60;;
2896;SDS011;1458;49.728;9.228;2023-04-24T09:37:40;4.70;;;4.70;;
2896;SDS011;1458;49.728;9.228;2023-04-24T09:40:15;4.70;;;4.70;;
2896;SDS011;1458;49.728;9.228;2023-04-24T09:42:44;5.10;;;5.10;;
2896;SDS011;1458;49.728;9.228;2023-04-24T09:45:12;5.00;;;5.00;;
2896;SDS011;1458;49.728;9.228;2023-04-24T09:47:40;4.90;;;4.90;;
2896;SDS011;1458;49.728;9.228;2023-04-24T09:50:12;5.67;;;5.67;;
2896;SDS011;1458;49.728;9.228;2023-04-24T09:52:41;6.23;;;6.23;;
2896;SDS011;1458;49.728;9.228;2023-04-24T09:55:12;6.70;;;6.70;;
2896;SDS011;1458;49.728;9.228;2023-04-24T09:57:49;6.73;;;6.63;;
2896;SDS011;1458;49.728;9.228;2023-04-24T10:00:22;6.30;;;6.30;;
2896;SDS011;1458;49.728;9.228;2023-04-24T10:02:55;6.03;;;6.03;;
2896;SDS011;1458;49.728;9.228;2023-04-24T10:05:24;6.10;;;6.10;;
2896;SDS011;1458;49.728;9.228;2023-04-24T10:07:59;6.10;;;6.10;;
2896;SDS011;1458;49.728;9.228;2023-04-24T10:10:30;6.50;;;6.50;;
2896;SDS011;1458;49.728;9.228;2023-04-24T10:13:00;6.30;;;6.30;;
2896;SDS011;1458;49.728;9.228;2023-04-24T10:15:28;6.70;;;6.60;;
2896;SDS011;1458;49.728;9.228;2023-04-24T10:17:57;6.90;;;6.80;;
2896;SDS011;1458;49.728;9.228;2023-04-24T10:20:26;6.00;;;6.00;;
2896;SDS011;1458;49.728;9.228;2023-04-24T10:22:57;6.30;;;6.30;;
2896;SDS011;1458;49.728;9.228;2023-04-24T10:25:26;6.00;;;6.00;;
2896;SDS011;1458;49.728;9.228;2023-04-24T10:27:58;6.00;;;6.00;;
2896;SDS011;1458;49.728;9.228;2023-04-24T10:30:27;5.80;;;5.80;;
2896;SDS011;1458;49.728;9.228;2023-04-24T10:33:00;6.47;;;6.47;;
2896;SDS011;1458;49.728;9.228;2023-04-24T10:35:29;6.30;;;6.30;;
2896;SDS011;1458;49.728;9.228;2023-04-24T10:37:59;6.80;;;6.70;;
2896;SDS011;1458;49.728;9.228;2023-04-24T10:40:32;6.50;;;6.50;;
2896;SDS011;1458;49.728;9.228;2023-04-24T10:43:03;6.20;;;6.20;;
2896;SDS011;1458;49.728;9.228;2023-04-24T10:45:33;6.10;;;6.10;;
2896;SDS011;1458;49.728;9.228;2023-04-24T10:48:01;6.60;;;6.60;;
2896;SDS011;1458;49.728;9.228;2023-04-24T10:50:41;5.90;;;5.90;;
2896;SDS011;1458;49.728;9.228;2023-04-24T10:53:12;5.60;;;5.60;;
2896;SDS011;1458;49.728;9.228;2023-04-24T10:55:43;5.70;;;5.70;;
2896;SDS011;1458;49.728;9.228;2023-04-24T10:58:14;5.80;;;5.80;;
2896;SDS011;1458;49.728;9.228;2023-04-24T11:00:43;5.43;;;5.43;;
2896;SDS011;1458;49.728;9.228;2023-04-24T11:03:23;5.10;;;5.10;;
2896;SDS011;1458;49.728;9.228;2023-04-24T11:05:55;4.17;;;4.17;;
2896;SDS011;1458;49.728;9.228;2023-04-24T11:08:26;2.00;;;2.00;;
2896;SDS011;1458;49.728;9.228;2023-04-24T11:11:03;0.80;;;0.80;;
2896;SDS011;1458;49.728;9.228;2023-04-24T11:16:34;2.20;;;2.20;;
2896;SDS011;1458;49.728;9.228;2023-04-24T11:19:06;1.53;;;1.53;;
2896;SDS011;1458;49.728;9.228;2023-04-24T11:21:40;1.60;;;1.60;;
2896;SDS011;1458;49.728;9.228;2023-04-24T11:24:21;2.20;;;2.20;;
2896;SDS011;1458;49.728;9.228;2023-04-24T11:26:51;3.43;;;3.43;;
2896;SDS011;1458;49.728;9.228;2023-04-24T11:29:21;4.20;;;4.20;;
2896;SDS011;1458;49.728;9.228;2023-04-24T11:31:52;4.90;;;4.90;;
2896;SDS011;1458;49.728;9.228;2023-04-24T11:34:22;4.40;;;4.40;;
2896;SDS011;1458;49.728;9.228;2023-04-24T11:36:50;4.87;;;4.87;;
2896;SDS011;1458;49.728;9.228;2023-04-24T11:39:17;5.00;;;5.00;;
2896;SDS011;1458;49.728;9.228;2023-04-24T11:41:45;5.40;;;5.40;;
2896;SDS011;1458;49.728;9.228;2023-04-24T11:44:13;5.80;;;5.80;;
2896;SDS011;1458;49.728;9.228;2023-04-24T11:46:47;5.13;;;5.13;;
2896;SDS011;1458;49.728;9.228;2023-04-24T11:49:14;5.40;;;5.40;;
2896;SDS011;1458;49.728;9.228;2023-04-24T11:51:42;5.20;;;5.20;;
2896;SDS011;1458;49.728;9.228;2023-04-24T11:54:09;5.50;;;5.50;;
2896;SDS011;1458;49.728;9.228;2023-04-24T11:56:37;5.40;;;5.40;;
2896;SDS011;1458;49.728;9.228;2023-04-24T11:59:04;4.80;;;4.80;;
2896;SDS011;1458;49.728;9.228;2023-04-24T12:01:42;5.47;;;5.47;;
2896;SDS011;1458;49.728;9.228;2023-04-24T12:04:12;5.30;;;5.30;;
2896;SDS011;1458;49.728;9.228;2023-04-24T12:06:46;5.10;;;5.10;;
2896;SDS011;1458;49.728;9.228;2023-04-24T12:09:26;5.70;;;5.70;;
2896;SDS011;1458;49.728;9.228;2023-04-24T12:11:54;5.90;;;5.90;;
2896;SDS011;1458;49.728;9.228;2023-04-24T12:14:23;5.70;;;5.70;;
2896;SDS011;1458;49.728;9.228;2023-04-24T12:16:51;5.90;;;5.90;;
2896;SDS011;1458;49.728;9.228;2023-04-24T12:19:21;6.17;;;6.17;;
2896;SDS011;1458;49.728;9.228;2023-04-24T12:22:00;6.10;;;6.10;;
2896;SDS011;1458;49.728;9.228;2023-04-24T12:24:28;5.90;;;5.90;;
2896;SDS011;1458;49.728;9.228;2023-04-24T12:26:56;6.40;;;6.40;;
2896;SDS011;1458;49.728;9.228;2023-04-24T12:29:24;6.53;;;6.50;;
2896;SDS011;1458;49.728;9.228;2023-04-24T12:31:52;6.80;;;6.70;;
2896;SDS011;1458;49.728;9.228;2023-04-24T12:34:22;6.80;;;6.70;;
2896;SDS011;1458;49.728;9.228;2023-04-24T12:36:51;6.80;;;6.70;;
2896;SDS011;1458;49.728;9.228;2023-04-24T12:39:19;6.80;;;6.70;;
2896;SDS011;1458;49.728;9.228;2023-04-24T12:41:56;7.00;;;6.90;;
2896;SDS011;1458;49.728;9.228;2023-04-24T12:44:33;6.50;;;6.50;;
2896;SDS011;1458;49.728;9.228;2023-04-24T12:47:02;6.50;;;6.50;;
2896;SDS011;1458;49.728;9.228;2023-04-24T12:49:31;6.00;;;6.00;;
2896;SDS011;1458;49.728;9.228;2023-04-24T12:51:59;6.20;;;6.20;;
2896;SDS011;1458;49.728;9.228;2023-04-24T12:54:26;6.00;;;6.00;;
2896;SDS011;1458;49.728;9.228;2023-04-24T12:56:59;6.40;;;6.40;;
2896;SDS011;1458;49.728;9.228;2023-04-24T12:59:27;6.80;;;6.70;;
2896;SDS011;1458;49.728;9.228;2023-04-24T13:01:54;7.10;;;7.00;;
2896;SDS011;1458;49.728;9.228;2023-04-24T13:04:22;6.73;;;6.67;;
2896;SDS011;1458;49.728;9.228;2023-04-24T13:06:51;6.00;;;6.00;;
2896;SDS011;1458;49.728;9.228;2023-04-24T13:09:18;5.60;;;5.60;;
2896;SDS011;1458;49.728;9.228;2023-04-24T13:11:46;5.40;;;5.40;;
2896;SDS011;1458;49.728;9.228;2023-04-24T13:14:13;4.50;;;4.50;;
2896;SDS011;1458;49.728;9.228;2023-04-24T13:16:41;2.90;;;2.90;;
2896;SDS011;1458;49.728;9.228;2023-04-24T13:19:09;2.40;;;2.40;;
2896;SDS011;1458;49.728;9.228;2023-04-24T13:21:36;1.87;;;1.87;;
2896;SDS011;1458;49.728;9.228;2023-04-24T13:24:05;1.70;;;1.70;;
2896;SDS011;1458;49.728;9.228;2023-04-24T13:26:34;1.20;;;1.20;;
2896;SDS011;1458;49.728;9.228;2023-04-24T13:29:01;1.17;;;1.17;;
2896;SDS011;1458;49.728;9.228;2023-04-24T13:31:29;0.70;;;0.70;;
2896;SDS011;1458;49.728;9.228;2023-04-24T13:33:57;0.50;;;0.50;;
2896;SDS011;1458;49.728;9.228;2023-04-24T13:36:24;0.40;;;0.40;;
2896;SDS011;1458;49.728;9.228;2023-04-24T13:38:52;0.40;;;0.40;;
2896;SDS011;1458;49.728;9.228;2023-04-24T13:41:21;0.40;;;0.40;;
2896;SDS011;1458;49.728;9.228;2023-04-24T13:43:48;0.33;;;0.33;;
2896;SDS011;1458;49.728;9.228;2023-04-24T13:46:16;0.30;;;0.30;;
2896;SDS011;1458;49.728;9.228;2023-04-24T13:48:43;0.30;;;0.30;;
2896;SDS011;1458;49.728;9.228;2023-04-24T13:51:11;0.30;;;0.30;;
2896;SDS011;1458;49.728;9.228;2023-04-24T13:53:38;0.40;;;0.40;;
2896;SDS011;1458;49.728;9.228;2023-04-24T13:56:06;0.50;;;0.50;;
2896;SDS011;1458;49.728;9.228;2023-04-24T13:58:35;0.40;;;0.40;;
2896;SDS011;1458;49.728;9.228;2023-04-24T14:01:03;0.40;;;0.40;;
2896;SDS011;1458;49.728;9.228;2023-04-24T14:03:31;0.60;;;0.60;;
2896;SDS011;1458;49.728;9.228;2023-04-24T14:05:59;0.77;;;0.77;;
2896;SDS011;1458;49.728;9.228;2023-04-24T14:08:27;0.70;;;0.70;;
2896;SDS011;1458;49.728;9.228;2023-04-24T14:10:55;0.90;;;0.90;;
2896;SDS011;1458;49.728;9.228;2023-04-24T14:13:23;1.07;;;1.07;;
2896;SDS011;1458;49.728;9.228;2023-04-24T14:15:52;1.30;;;1.30;;
2896;SDS011;1458;49.728;9.228;2023-04-24T14:18:19;1.60;;;1.60;;
2896;SDS011;1458;49.728;9.228;2023-04-24T14:20:47;1.80;;;1.80;;
2896;SDS011;1458;49.728;9.228;2023-04-24T14:23:15;1.50;;;1.50;;
2896;SDS011;1458;49.728;9.228;2023-04-24T14:25:42;1.40;;;1.40;;
2896;SDS011;1458;49.728;9.228;2023-04-24T14:28:10;2.20;;;2.20;;
2896;SDS011;1458;49.728;9.228;2023-04-24T14:30:38;2.30;;;2.30;;
2896;SDS011;1458;49.728;9.228;2023-04-24T14:33:07;2.87;;;2.87;;
2896;SDS011;1458;49.728;9.228;2023-04-24T14:35:36;3.10;;;3.10;;
2896;SDS011;1458;49.728;9.228;2023-04-24T14:38:03;3.10;;;3.10;;
2896;SDS011;1458;49.728;9.228;2023-04-24T14:40:31;3.20;;;3.20;;
2896;SDS011;1458;49.728;9.228;2023-04-24T14:42:58;3.70;;;3.70;;
2896;SDS011;1458;49.728;9.228;2023-04-24T14:45:26;4.53;;;4.53;;
2896;SDS011;1458;49.728;9.228;2023-04-24T14:47:54;4.90;;;4.90;;
2896;SDS011;1458;49.728;9.228;2023-04-24T14:50:24;5.80;;;5.80;;
2896;SDS011;1458;49.728;9.228;2023-04-24T14:52:53;5.80;;;5.80;;
2896;SDS011;1458;49.728;9.228;2023-04-24T14:55:22;6.00;;;6.00;;
2896;SDS011;1458;49.728;9.228;2023-04-24T14:57:50;6.10;;;6.10;;
2896;SDS011;1458;49.728;9.228;2023-04-24T15:00:18;6.00;;;6.00;;
2896;SDS011;1458;49.728;9.228;2023-04-24T15:02:48;6.60;;;6.60;;
2896;SDS011;1458;49.728;9.228;2023-04-24T15:05:16;6.10;;;6.10;;
2896;SDS011;1458;49.728;9.228;2023-04-24T15:07:45;6.80;;;6.70;;
2896;SDS011;1458;49.728;9.228;2023-04-24T15:10:12;6.30;;;6.30;;
2896;SDS011;1458;49.728;9.228;2023-04-24T15:12:40;6.50;;;6.50;;
2896;SDS011;1458;49.728;9.228;2023-04-24T15:15:08;6.80;;;6.70;;
2896;SDS011;1458;49.728;9.228;2023-04-24T15:17:37;6.20;;;6.20;;
2896;SDS011;1458;49.728;9.228;2023-04-24T15:20:05;6.30;;;6.30;;
2896;SDS011;1458;49.728;9.228;2023-04-24T15:22:34;7.03;;;6.93;;
2896;SDS011;1458;49.728;9.228;2023-04-24T15:25:04;6.30;;;6.30;;
2896;SDS011;1458;49.728;9.228;2023-04-24T15:27:41;6.20;;;6.20;;
2896;SDS011;1458;49.728;9.228;2023-04-24T15:30:11;6.23;;;6.23;;